Time;durP1;ratioP1;P1;durP2;ratioP2;P2;SDS_P1;SDS_P2;PMS_P1;PMS_P2;Temp;Humidity;BMP_temperature;BMP_pressure;BME280_temperature;BME280_humidity;BME280_pressure;Samples;Min_cycle;Max_cycle;Signal;HPM_P1;HPM_P2
2022/06/13 00:00:17;;;;;;;2.65;1.70;;;;;;;16.75;51.22;100934.00;5054926;28;20108;-21
2022/06/13 00:02:42;;;;;;;1.80;1.60;;;;;;;16.77;51.38;100938.38;5069712;28;20023;-21
2022/06/13 00:05:08;;;;;;;1.80;1.70;;;;;;;16.77;51.16;100953.47;5053719;28;20037;-21
2022/06/13 00:07:34;;;;;;;2.20;2.00;;;;;;;16.74;51.12;100945.59;5050564;28;20435;-21
2022/06/13 00:09:59;;;;;;;2.40;1.67;;;;;;;16.71;51.16;100945.69;5075017;28;20107;-21
2022/06/13 00:12:26;;;;;;;3.90;1.80;;;;;;;16.74;50.93;100945.59;5068232;28;20036;-21
2022/06/13 00:14:51;;;;;;;4.25;1.55;;;;;;;16.70;51.08;100943.94;5071781;28;20395;-21
2022/06/13 00:17:16;;;;;;;1.75;1.58;;;;;;;16.72;51.11;100944.75;5073656;28;20030;-21
2022/06/13 00:19:42;;;;;;;2.55;1.52;;;;;;;16.71;51.38;100940.34;5079176;28;20464;-21
2022/06/13 00:22:07;;;;;;;3.70;1.70;;;;;;;16.68;50.98;100936.00;5081624;28;20364;-21
2022/06/13 00:24:33;;;;;;;2.55;1.98;;;;;;;16.71;51.36;100943.91;5060163;28;20038;-21
2022/06/13 00:26:58;;;;;;;3.90;1.52;;;;;;;16.67;51.19;100934.22;5072068;28;20560;-22
2022/06/13 00:29:24;;;;;;;3.85;2.17;;;;;;;16.71;51.32;100941.25;5077868;28;20054;-21
2022/06/13 00:31:49;;;;;;;2.42;1.70;;;;;;;16.67;51.65;100940.44;5058375;28;20055;-21
2022/06/13 00:34:14;;;;;;;1.98;1.45;;;;;;;16.70;51.23;100939.47;5061036;28;20031;-21
2022/06/13 00:36:40;;;;;;;4.03;1.95;;;;;;;16.67;51.58;100932.47;5057651;28;20223;-21
2022/06/13 00:39:05;;;;;;;3.35;1.95;;;;;;;16.69;51.57;100940.41;5077875;28;20105;-21
2022/06/13 00:41:34;;;;;;;2.90;1.88;;;;;;;16.68;51.39;100941.34;5079825;28;20082;-21
2022/06/13 00:44:00;;;;;;;2.63;1.80;;;;;;;16.67;51.77;100936.91;5078497;28;20024;-21
2022/06/13 00:46:32;;;;;;;2.47;1.73;;;;;;;16.64;51.62;100935.22;5065039;28;20544;-21
2022/06/13 00:49:18;;;;;;;2.63;1.75;;;;;;;16.64;51.61;100931.69;5074297;28;20038;-21
2022/06/13 00:51:48;;;;;;;2.88;1.80;;;;;;;16.64;51.76;100934.34;5071382;28;20103;-21
2022/06/13 00:54:16;;;;;;;3.03;1.80;;;;;;;16.59;51.71;100930.94;5052756;28;20109;-21
2022/06/13 00:56:41;;;;;;;3.55;2.08;;;;;;;16.63;51.98;100935.25;5070497;28;20024;-21
2022/06/13 00:59:12;;;;;;;2.95;1.63;;;;;;;16.59;51.80;100937.16;5061380;28;20039;-21
2022/06/13 01:01:37;;;;;;;;;;;;;;;16.61;52.11;100945.94;5062236;28;20064;-21
2022/06/13 01:04:04;;;;;;;2.20;2.00;;;;;;;16.58;51.85;100945.19;5045814;28;20012;-21
2022/06/13 01:06:35;;;;;;;2.30;2.00;;;;;;;16.57;52.21;100938.13;5055870;28;20318;-21
2022/06/13 01:09:04;;;;;;;2.80;1.80;;;;;;;16.59;52.24;100936.25;5071981;28;20457;-21
2022/06/13 01:11:29;;;;;;;4.22;2.28;;;;;;;16.59;52.33;100939.81;5054976;28;20020;-20
2022/06/13 01:14:10;;;;;;;3.83;2.25;;;;;;;16.56;51.95;100942.56;5054370;28;20035;-22
2022/06/13 01:16:44;;;;;;;4.70;2.23;;;;;;;16.59;52.26;100944.25;5071797;28;20040;-20
2022/06/13 01:19:28;;;;;;;2.17;1.98;;;;;;;16.58;52.15;100942.50;5048755;28;20032;-21
2022/06/13 01:22:18;;;;;;;3.28;2.38;;;;;;;16.55;52.36;100938.16;5047544;28;20039;-21
2022/06/13 01:24:55;;;;;;;2.60;2.33;;;;;;;16.54;52.30;100934.63;5030864;28;20033;-20
2022/06/13 01:27:36;;;;;;;3.40;2.10;;;;;;;16.52;52.57;100941.78;5046125;28;20064;-21
2022/06/13 01:30:11;;;;;;;5.18;2.80;;;;;;;16.52;52.86;100946.22;5049041;28;20036;-20
2022/06/13 01:32:51;;;;;;;2.35;1.80;;;;;;;16.51;52.85;100940.03;5027855;28;20935;-21
2022/06/13 01:35:43;;;;;;;2.20;2.00;;;;;;;16.50;52.78;100943.63;5046035;28;20021;-21
2022/06/13 01:38:15;;;;;;;5.35;2.85;;;;;;;16.48;52.87;100940.16;5042179;28;20033;-21
2022/06/13 01:40:52;;;;;;;3.60;2.50;;;;;;;16.47;53.04;100943.69;5043122;28;20029;-20
2022/06/13 01:43:48;;;;;;;3.85;2.13;;;;;;;16.45;52.63;100939.34;5043416;28;20028;-21
2022/06/13 01:46:32;;;;;;;4.22;2.28;;;;;;;16.44;52.68;100949.09;5043982;28;20087;-20
2022/06/13 01:48:59;;;;;;;3.60;2.53;;;;;;;16.42;52.96;100953.63;5040395;28;20064;-21
2022/06/13 01:51:33;;;;;;;3.80;2.28;;;;;;;16.40;53.00;100955.44;5045705;28;20102;-21
2022/06/13 01:54:14;;;;;;;3.72;2.35;;;;;;;16.39;52.99;100959.91;5040631;28;20036;-21
2022/06/13 01:56:48;;;;;;;2.88;2.20;;;;;;;16.38;53.02;100958.16;5045213;28;20075;-21
2022/06/13 01:59:18;;;;;;;2.90;2.58;;;;;;;16.36;53.59;100961.78;5046072;28;20123;-21
2022/06/13 02:01:50;;;;;;;2.58;2.38;;;;;;;16.36;53.44;100956.44;5029364;28;20025;-21
2022/06/13 02:04:22;;;;;;;2.85;2.40;;;;;;;16.32;53.38;100961.00;5026346;28;20078;-21
2022/06/13 02:06:53;;;;;;;3.10;2.60;;;;;;;16.28;53.24;100949.56;5046297;28;20116;-21
2022/06/13 02:09:28;;;;;;;2.97;2.70;;;;;;;16.25;53.48;100944.34;5029963;28;20020;-21
2022/06/13 02:11:55;;;;;;;3.65;2.42;;;;;;;16.24;53.46;100942.59;5047223;28;20083;-21
2022/06/13 02:14:25;;;;;;;4.03;2.47;;;;;;;16.25;53.54;100954.09;5045200;28;20039;-21
2022/06/13 02:17:01;;;;;;;4.80;2.35;;;;;;;16.20;53.53;100961.34;5046697;28;20124;-20
2022/06/13 02:19:48;;;;;;;4.47;3.15;;;;;;;16.20;53.89;100964.88;5052134;28;20388;-21
2022/06/13 02:22:28;;;;;;;2.92;2.50;;;;;;;16.16;53.45;100969.41;5068715;28;20028;-21
2022/06/13 02:24:58;;;;;;;5.47;2.97;;;;;;;16.16;53.80;100976.53;5066222;28;20366;-20
2022/06/13 02:27:30;;;;;;;3.17;2.30;;;;;;;16.14;53.69;100975.72;5070730;28;20050;-21
2022/06/13 02:29:56;;;;;;;5.57;2.70;;;;;;;16.13;54.46;100971.28;5058647;28;20032;-21
2022/06/13 02:32:27;;;;;;;3.63;2.90;;;;;;;16.10;54.06;100974.03;5067494;28;20399;-21
2022/06/13 02:34:59;;;;;;;3.78;2.65;;;;;;;16.12;53.85;100974.88;5045420;28;20020;-21
2022/06/13 02:37:31;;;;;;;2.97;2.60;;;;;;;16.06;53.99;100972.34;5054189;28;20115;-21
2022/06/13 02:40:11;;;;;;;3.38;2.50;;;;;;;16.09;53.78;100977.59;5039247;28;20016;-21
2022/06/13 02:42:53;;;;;;;2.67;2.47;;;;;;;16.03;54.04;100982.19;5067798;28;20020;-21
2022/06/13 02:45:26;;;;;;;5.93;2.75;;;;;;;16.02;54.23;100988.44;5051575;28;20119;-21
2022/06/13 02:48:08;;;;;;;3.95;2.72;;;;;;;16.00;54.00;100998.22;5042462;28;20495;-21
2022/06/13 02:50:56;;;;;;;5.25;2.72;;;;;;;16.05;54.15;100994.56;5065176;28;20534;-21
2022/06/13 02:53:22;;;;;;;4.07;2.65;;;;;;;16.01;54.26;100993.78;5048249;28;20122;-21
2022/06/13 02:55:58;;;;;;;3.70;2.80;;;;;;;15.97;54.53;100994.78;5066758;28;20071;-20
2022/06/13 02:59:25;;;;;;;5.20;2.88;;;;;;;15.98;54.56;100994.75;5059165;28;20042;-21
2022/06/13 03:01:51;;;;;;;6.13;3.05;;;;;;;15.96;54.36;100995.69;5020970;28;20495;-21
2022/06/13 03:04:30;;;;;;;5.22;3.22;;;;;;;15.95;55.02;100988.59;5067038;28;20031;-21
2022/06/13 03:07:17;;;;;;;4.68;3.03;;;;;;;15.91;54.74;100991.31;5062321;28;20016;-21
2022/06/13 03:09:49;;;;;;;4.35;3.30;;;;;;;15.93;54.86;100991.28;5042145;28;20039;-21
2022/06/13 03:12:39;;;;;;;4.53;2.90;;;;;;;15.93;54.54;100996.59;5046385;28;20027;-21
2022/06/13 03:15:17;;;;;;;4.00;2.65;;;;;;;15.92;54.44;100984.22;5050623;28;20387;-21
2022/06/13 03:17:44;;;;;;;4.70;2.78;;;;;;;15.90;54.65;100986.03;5052951;28;20033;-21
2022/06/13 03:20:11;;;;;;;4.93;2.97;;;;;;;15.90;55.06;100986.03;5065297;28;20020;-21
2022/06/13 03:22:49;;;;;;;3.03;2.72;;;;;;;15.89;54.75;100990.50;5042653;28;20028;-22
2022/06/13 03:25:31;;;;;;;5.80;3.17;;;;;;;15.86;54.67;100987.91;5055231;28;20028;-22
2022/06/13 03:28:09;;;;;;;5.15;2.85;;;;;;;15.87;54.66;100988.81;5054452;28;20516;-20
2022/06/13 03:30:38;;;;;;;4.75;3.05;;;;;;;15.85;54.42;100985.31;5065357;28;20027;-21
2022/06/13 03:35:52;;;;;;;3.42;3.05;;;;;;;15.82;54.49;100988.03;5055182;28;20094;-21
2022/06/13 03:38:21;;;;;;;5.28;3.10;;;;;;;15.84;54.46;100981.75;5073420;28;20024;-21
2022/06/13 03:40:53;;;;;;;4.03;2.88;;;;;;;15.82;54.74;100980.06;5065035;28;20029;-21
2022/06/13 03:43:22;;;;;;;3.20;2.90;;;;;;;15.82;54.47;100988.03;5066608;28;20082;-21
2022/06/13 03:45:51;;;;;;;4.40;2.85;;;;;;;15.81;54.24;100978.31;5062281;28;20071;-21
2022/06/13 03:48:27;;;;;;;3.45;2.78;;;;;;;15.78;54.46;100982.78;5040264;28;20132;-21
2022/06/13 03:50:56;;;;;;;3.00;2.72;;;;;;;15.80;54.67;100985.41;5062296;28;20032;-21
2022/06/13 03:53:27;;;;;;;3.67;2.42;;;;;;;15.84;54.16;100991.53;5065496;28;21068;-21
2022/06/13 03:56:05;;;;;;;3.45;2.70;;;;;;;15.80;54.15;100995.19;5050172;28;20012;-21
2022/06/13 03:58:34;;;;;;;3.67;2.58;;;;;;;15.76;54.29;100995.28;5071676;28;20491;-21
2022/06/13 04:01:07;;;;;;;4.75;2.70;;;;;;;15.77;54.31;100989.03;5054224;28;20055;-21
2022/06/13 04:03:33;;;;;;;4.15;2.70;;;;;;;15.76;54.08;100979.31;5071931;28;20371;-21
2022/06/13 04:06:01;;;;;;;4.70;2.83;;;;;;;15.82;54.63;100993.34;5049980;28;20540;-21
2022/06/13 04:08:29;;;;;;;3.72;2.45;;;;;;;15.77;54.34;100998.78;5068072;28;20032;-21
2022/06/13 04:11:01;;;;;;;5.00;2.92;;;;;;;15.77;54.56;101007.66;5063646;28;20383;-21
2022/06/13 04:14:06;;;;;;;4.30;3.13;;;;;;;15.80;54.78;101016.47;5070158;28;20035;-21
2022/06/13 04:16:40;;;;;;;2.90;2.70;;;;;;;15.76;54.75;101015.66;5067773;28;20035;-20
2022/06/13 04:19:35;;;;;;;3.85;2.65;;;;;;;15.74;54.88;101009.53;5030655;28;20115;-20
2022/06/13 04:22:14;;;;;;;4.22;2.90;;;;;;;15.77;55.15;101006.75;5041660;28;20047;-21
2022/06/13 04:25:01;;;;;;;3.85;2.45;;;;;;;15.76;54.71;101011.22;5031725;28;20016;-20
2022/06/13 04:27:32;;;;;;;3.75;2.67;;;;;;;15.76;55.03;101011.22;5046548;28;20104;-21
2022/06/13 04:30:09;;;;;;;5.18;2.88;;;;;;;15.75;55.27;101014.81;5050251;28;20068;-21
2022/06/13 04:32:40;;;;;;;4.32;2.92;;;;;;;15.83;54.99;101013.72;5047718;28;20137;-20
2022/06/13 04:35:06;;;;;;;;;;;;;;;15.77;54.76;101012.97;5051192;28;20031;-20
2022/06/13 04:37:31;;;;;;;3.80;2.78;;;;;;;15.77;55.05;101018.28;5049158;28;20007;-21
2022/06/13 04:40:00;;;;;;;4.63;2.85;;;;;;;15.77;55.00;101023.59;5048466;28;20033;-20
2022/06/13 04:42:30;;;;;;;4.13;2.95;;;;;;;15.84;54.93;101034.09;5050257;28;20400;-21
2022/06/13 04:44:58;;;;;;;4.20;2.97;;;;;;;15.84;55.15;101034.09;5031385;28;20033;-20
2022/06/13 04:47:24;;;;;;;5.50;3.30;;;;;;;15.84;55.04;101029.63;5046038;28;20021;-20
2022/06/13 04:49:55;;;;;;;4.75;3.03;;;;;;;15.85;55.33;101030.50;5035277;28;20079;-20
2022/06/13 04:52:26;;;;;;;4.47;2.78;;;;;;;15.88;55.39;101030.44;5030447;28;20044;-20
2022/06/13 04:55:06;;;;;;;4.45;3.00;;;;;;;15.87;55.29;101039.34;5028902;28;20067;-20
2022/06/13 04:57:32;;;;;;;4.15;3.20;;;;;;;15.88;55.95;101039.28;5049113;28;20106;-20
2022/06/13 04:59:57;;;;;;;3.67;3.00;;;;;;;15.89;55.80;101043.69;5048369;28;20095;-20
2022/06/13 05:02:33;;;;;;;4.18;2.97;;;;;;;15.93;55.16;101044.47;5048293;28;20123;-20
2022/06/13 05:04:59;;;;;;;3.92;2.78;;;;;;;15.95;55.34;101049.75;5031130;28;20033;-20
2022/06/13 05:07:24;;;;;;;4.60;3.67;;;;;;;15.95;55.16;101041.78;5033649;28;20029;-20
2022/06/13 05:09:52;;;;;;;5.00;2.95;;;;;;;15.98;55.74;101042.63;5047950;28;20039;-20
2022/06/13 05:12:24;;;;;;;5.25;3.17;;;;;;;15.99;54.92;101044.38;5046128;28;20029;-20
2022/06/13 05:15:02;;;;;;;5.55;2.75;;;;;;;16.01;55.15;101036.34;5045153;28;20032;-20
2022/06/13 05:17:49;;;;;;;4.90;3.08;;;;;;;16.02;55.29;101038.97;5041128;28;20040;-20
2022/06/13 05:20:19;;;;;;;4.97;2.85;;;;;;;16.06;55.20;101033.53;5050173;28;20021;-20
2022/06/13 05:23:09;;;;;;;5.70;2.67;;;;;;;16.07;55.09;101030.00;5029836;28;20037;-20
2022/06/13 05:25:49;;;;;;;3.57;2.90;;;;;;;16.07;54.76;101036.16;5049161;28;20052;-20
2022/06/13 05:28:19;;;;;;;3.63;2.97;;;;;;;16.11;54.92;101047.63;5049630;28;20029;-20
2022/06/13 05:30:47;;;;;;;5.25;3.08;;;;;;;16.13;54.64;101043.13;5041410;28;20111;-20
2022/06/13 05:33:13;;;;;;;5.78;2.88;;;;;;;16.15;55.17;101057.28;5046709;28;20044;-20
2022/06/13 05:35:43;;;;;;;4.78;2.97;;;;;;;16.20;55.17;101058.00;5047186;28;20071;-20
2022/06/13 05:38:13;;;;;;;3.60;2.40;;;;;;;16.25;54.74;101066.75;5031225;28;20140;-20
2022/06/13 05:40:38;;;;;;;4.83;2.90;;;;;;;16.31;55.33;101065.72;5032139;28;20851;-20
2022/06/13 05:43:03;;;;;;;4.75;3.03;;;;;;;16.34;55.36;101064.75;5049819;28;20359;-20
2022/06/13 05:45:29;;;;;;;3.97;3.00;;;;;;;16.39;55.22;101069.06;5048960;28;20027;-21
2022/06/13 05:47:54;;;;;;;6.72;3.33;;;;;;;16.44;55.47;101068.91;5049016;28;20119;-21
2022/06/13 05:50:25;;;;;;;3.38;2.70;;;;;;;16.51;55.14;101067.81;5049900;28;20029;-20
2022/06/13 05:52:51;;;;;;;4.68;3.03;;;;;;;16.53;55.00;101071.31;5049095;28;20380;-21
2022/06/13 05:55:17;;;;;;;4.63;3.25;;;;;;;16.60;54.83;101066.69;5046965;28;20484;-21
2022/06/13 05:57:42;;;;;;;7.18;3.30;;;;;;;16.64;55.10;101075.50;5029647;28;20029;-20
2022/06/13 06:00:14;;;;;;;6.25;2.78;;;;;;;16.65;54.46;101072.78;5029655;28;20047;-20
2022/06/13 06:02:40;;;;;;;5.43;2.75;;;;;;;16.74;54.59;101078.75;5059828;28;20047;-20
2022/06/13 06:05:06;;;;;;;4.07;2.83;;;;;;;16.79;54.11;101077.72;5049137;28;20104;-21
2022/06/13 06:07:32;;;;;;;4.72;2.70;;;;;;;16.85;53.87;101071.34;5048941;28;20112;-21
2022/06/13 06:09:58;;;;;;;3.40;2.60;;;;;;;16.92;53.82;101072.91;5028713;28;20063;-20
2022/06/13 06:12:23;;;;;;;5.35;2.92;;;;;;;16.98;53.80;101073.63;5030312;28;20024;-20
2022/06/13 06:14:49;;;;;;;5.85;3.20;;;;;;;17.02;53.50;101081.50;5047678;28;20057;-20
2022/06/13 06:17:14;;;;;;;5.45;2.67;;;;;;;17.05;52.91;101054.75;5050214;28;20020;-20
2022/06/13 06:19:39;;;;;;;4.40;2.75;;;;;;;17.13;52.88;101043.88;5046136;28;20071;-20
2022/06/13 06:22:05;;;;;;;4.68;2.47;;;;;;;17.15;52.47;101042.06;5047781;28;20039;-21
2022/06/13 06:24:30;;;;;;;3.53;2.70;;;;;;;17.21;52.71;101051.66;5065002;28;20032;-20
2022/06/13 06:26:56;;;;;;;6.22;2.75;;;;;;;17.22;52.21;101056.06;5044726;28;20017;-20
2022/06/13 06:29:21;;;;;;;4.53;2.95;;;;;;;17.20;52.25;101055.22;5066314;28;20043;-20
2022/06/13 06:31:47;;;;;;;5.50;2.47;;;;;;;17.28;52.25;101058.50;5065941;28;20036;-20
2022/06/13 06:34:13;;;;;;;4.25;2.65;;;;;;;17.33;52.35;101052.19;5064604;28;20078;-20
2022/06/13 06:36:38;;;;;;;4.55;2.50;;;;;;;17.36;52.52;101049.41;5063899;28;20035;-21
2022/06/13 06:39:03;;;;;;;4.82;2.75;;;;;;;17.41;52.43;101047.47;5067602;28;20032;-21
2022/06/13 06:41:29;;;;;;;4.57;2.90;;;;;;;17.42;52.41;101027.91;5065142;28;20020;-21
2022/06/13 06:43:54;;;;;;;5.68;2.67;;;;;;;17.43;52.39;101029.63;5066046;28;20027;-21
2022/06/13 06:46:20;;;;;;;5.75;2.85;;;;;;;17.49;52.42;101039.22;5068667;28;20020;-20
2022/06/13 06:48:45;;;;;;;4.93;2.50;;;;;;;17.50;52.36;101041.84;5048982;28;20020;-20
2022/06/13 06:51:13;;;;;;;4.10;2.58;;;;;;;17.54;52.02;101047.97;5067149;28;20624;-20
2022/06/13 07:01:51;;;;;;;5.47;2.78;;;;;;;17.68;51.69;101064.38;5068138;28;20040;-20
2022/06/13 07:04:16;;;;;;;3.08;2.55;;;;;;;17.68;51.58;101052.84;5066228;28;20287;-20
2022/06/13 07:06:42;;;;;;;6.15;2.92;;;;;;;17.69;51.51;101058.13;5066903;28;20022;-20
2022/06/13 07:09:07;;;;;;;4.10;2.38;;;;;;;17.70;51.76;101065.19;5069427;28;20478;-20
2022/06/13 07:14:17;;;;;;;6.10;2.88;;;;;;;17.76;51.38;101082.81;5052176;28;20111;-20
2022/06/13 07:16:43;;;;;;;4.80;2.35;;;;;;;17.78;51.62;101075.59;5066899;28;20107;-21
2022/06/13 07:19:08;;;;;;;3.38;2.88;;;;;;;17.76;51.38;101085.47;5067693;28;20041;-20
2022/06/13 07:21:34;;;;;;;5.90;3.05;;;;;;;17.82;51.73;101097.72;5067532;28;20120;-20
2022/06/13 07:23:59;;;;;;;5.78;2.70;;;;;;;17.87;51.34;101097.59;5064854;28;20021;-20
2022/06/13 07:26:25;;;;;;;6.53;2.83;;;;;;;17.88;51.85;101094.00;5067592;28;20038;-20
2022/06/13 07:28:50;;;;;;;4.18;2.47;;;;;;;17.92;51.56;101091.19;5067705;28;20047;-20
2022/06/13 07:31:19;;;;;;;3.38;2.50;;;;;;;17.98;51.28;101094.56;5065219;28;20025;-21
2022/06/13 07:33:46;;;;;;;8.70;2.72;;;;;;;17.99;51.60;101094.50;5067583;28;20360;-20
2022/06/13 07:36:12;;;;;;;3.95;2.42;;;;;;;18.04;51.39;101097.03;5049630;28;20025;-20
2022/06/13 07:38:37;;;;;;;3.83;2.60;;;;;;;18.05;51.29;101094.31;5065194;28;20040;-20
2022/06/13 07:41:02;;;;;;;3.67;2.67;;;;;;;18.09;51.42;101092.44;5048597;28;20023;-20
2022/06/13 07:43:30;;;;;;;4.28;2.53;;;;;;;18.14;51.29;101100.28;5067308;28;20028;-20
2022/06/13 07:45:57;;;;;;;5.40;2.97;;;;;;;18.19;51.22;101099.22;5045918;28;20017;-21
2022/06/13 07:48:23;;;;;;;4.93;2.55;;;;;;;18.24;51.19;101085.66;5066348;28;20085;-20
2022/06/13 07:50:48;;;;;;;5.28;2.47;;;;;;;18.31;50.90;101092.53;5067023;28;20028;-20
2022/06/13 07:53:14;;;;;;;4.72;2.80;;;;;;;18.40;51.14;101095.81;5067556;28;20024;-20
2022/06/13 07:55:39;;;;;;;7.53;3.13;;;;;;;18.50;50.64;101086.56;5046720;28;20028;-20
2022/06/13 07:58:05;;;;;;;5.20;2.15;;;;;;;18.57;50.79;101088.09;5049462;28;20404;-20
2022/06/13 08:00:33;;;;;;;5.45;3.00;;;;;;;18.64;50.59;101087.88;5049635;28;20020;-20
2022/06/13 08:03:01;;;;;;;5.88;2.70;;;;;;;18.66;50.33;101096.69;5029175;28;20556;-20
2022/06/13 08:05:26;;;;;;;7.63;3.22;;;;;;;18.77;50.55;101099.84;5066087;28;20484;-20
2022/06/13 08:07:51;;;;;;;3.83;3.25;;;;;;;18.87;50.39;101097.69;5065222;28;20024;-20
2022/06/13 08:10:17;;;;;;;4.85;2.47;;;;;;;18.97;50.27;101095.53;5067321;28;20472;-20
2022/06/13 08:12:44;;;;;;;5.15;2.45;;;;;;;19.04;50.24;101102.41;5066587;28;20392;-20
2022/06/13 08:15:09;;;;;;;7.65;2.85;;;;;;;19.13;50.18;101106.56;5046300;28;20032;-20
2022/06/13 08:17:35;;;;;;;5.32;2.85;;;;;;;19.16;50.32;101105.56;5066237;28;20040;-20
2022/06/13 08:20:00;;;;;;;5.13;3.00;;;;;;;19.23;50.08;101107.06;5067898;28;20044;-20
2022/06/13 08:22:26;;;;;;;7.88;3.30;;;;;;;19.31;50.22;101104.97;5065650;28;20070;-20
2022/06/13 08:24:51;;;;;;;4.68;2.95;;;;;;;19.39;50.17;101115.38;5044959;28;20052;-21
2022/06/13 08:27:16;;;;;;;5.43;3.03;;;;;;;19.43;49.86;101105.41;5048688;28;20107;-21
2022/06/13 08:29:42;;;;;;;5.75;2.42;;;;;;;19.48;49.92;101098.09;5066736;28;20035;-20
2022/06/13 08:32:07;;;;;;;6.57;3.17;;;;;;;19.54;49.80;101102.34;5037202;28;20044;-20
2022/06/13 08:34:32;;;;;;;3.80;2.50;;;;;;;19.58;49.90;101094.09;5065084;28;20040;-20
2022/06/13 08:36:58;;;;;;;5.25;3.10;;;;;;;19.61;49.73;101085.09;5064685;28;21820;-20
2022/06/13 08:39:23;;;;;;;6.60;3.00;;;;;;;19.67;49.85;101092.00;5066739;28;20383;-20
2022/06/13 08:42:00;;;;;;;2.97;2.20;;;;;;;19.70;49.83;101098.09;5068579;28;20468;-21
2022/06/13 08:44:55;;;;;;;4.43;2.67;;;;;;;19.75;49.83;101111.28;5053070;28;20016;-21
2022/06/13 08:47:33;;;;;;;5.38;2.67;;;;;;;19.80;50.07;101103.06;5067354;28;20214;-20
2022/06/13 08:50:13;;;;;;;5.72;3.13;;;;;;;19.83;49.83;101106.50;5070398;28;20020;-21
2022/06/13 08:52:52;;;;;;;4.50;2.47;;;;;;;19.86;49.89;101111.72;5050503;28;20035;-20
2022/06/13 08:55:27;;;;;;;4.60;3.50;;;;;;;19.88;49.60;101103.63;5035035;28;20553;-20
2022/06/13 08:58:10;;;;;;;5.30;2.97;;;;;;;19.92;49.87;101104.38;5069828;28;20062;-20
2022/06/13 09:00:36;;;;;;;6.45;2.90;;;;;;;19.91;49.70;101099.97;5048617;28;20123;-21
2022/06/13 09:03:10;;;;;;;4.78;2.88;;;;;;;19.94;49.58;101097.16;5049871;28;20111;-20
2022/06/13 09:05:35;;;;;;;6.63;2.85;;;;;;;19.97;49.60;101097.00;5034431;28;20048;-21
2022/06/13 09:08:21;;;;;;;4.27;2.77;;;;;;;20.00;49.53;101096.91;5050632;28;20067;-20
2022/06/13 09:11:12;;;;;;;4.45;2.40;;;;;;;20.06;49.47;101091.31;5065619;28;20296;-20
2022/06/13 09:14:02;;;;;;;4.63;2.60;;;;;;;20.08;49.50;101085.88;5070075;28;20055;-20
2022/06/13 09:16:36;;;;;;;6.28;3.17;;;;;;;20.13;49.38;101086.56;5067482;28;20036;-20
2022/06/13 09:19:33;;;;;;;5.50;2.90;;;;;;;20.15;49.47;101083.81;5069307;28;20041;-21
2022/06/13 09:22:08;;;;;;;4.63;2.75;;;;;;;20.18;49.49;101070.28;5064025;28;20036;-21
2022/06/13 09:24:48;;;;;;;2.83;2.38;;;;;;;20.20;49.37;101080.00;5048148;28;20020;-21
2022/06/13 09:27:17;;;;;;;4.30;2.60;;;;;;;20.17;49.46;101082.81;5049453;28;20605;-20
2022/06/13 09:29:58;;;;;;;6.45;2.70;;;;;;;20.18;49.80;101105.09;5043461;28;20406;-21
2022/06/13 09:32:32;;;;;;;5.30;2.60;;;;;;;20.03;50.48;101123.56;5030654;28;20028;-20
2022/06/13 09:35:30;;;;;;;4.45;3.13;;;;;;;19.81;52.32;101137.78;5034466;28;20392;-20
2022/06/13 09:38:03;;;;;;;3.90;2.75;;;;;;;19.70;52.52;101132.00;5066826;28;20033;-20
2022/06/13 09:40:38;;;;;;;8.77;3.28;;;;;;;19.62;52.38;101113.59;5049853;28;20039;-21
2022/06/13 09:43:18;;;;;;;2.85;2.35;;;;;;;19.53;52.83;101112.16;5069188;28;20115;-20
2022/06/13 09:46:04;;;;;;;6.40;3.40;;;;;;;19.42;52.98;101130.44;5066385;28;20019;-20
2022/06/13 09:49:10;;;;;;;7.25;3.20;;;;;;;19.32;53.39;101132.59;5067856;28;20115;-20
2022/06/13 09:52:01;;;;;;;5.25;2.90;;;;;;;19.20;53.75;101139.28;5064511;28;20044;-20
2022/06/13 09:54:39;;;;;;;6.80;3.47;;;;;;;19.07;54.23;101150.44;5065903;28;20028;-20
2022/06/13 09:57:25;;;;;;;6.05;2.85;;;;;;;18.98;54.50;101162.31;5067006;28;20024;-20
2022/06/13 09:59:59;;;;;;;5.68;3.13;;;;;;;18.91;54.52;101166.13;5050080;28;20077;-20
2022/06/13 10:02:29;;;;;;;3.97;2.67;;;;;;;18.85;54.46;101164.53;5067524;28;20047;-20
2022/06/13 10:04:57;;;;;;;5.15;2.80;;;;;;;18.80;54.48;101169.19;5066490;28;20499;-20
2022/06/13 10:08:04;;;;;;;4.30;2.55;;;;;;;18.77;54.68;101168.44;5068644;28;20024;-20
2022/06/13 10:10:43;;;;;;;4.10;2.38;;;;;;;18.72;55.86;101173.94;5020657;28;20033;-20
2022/06/13 10:13:29;;;;;;;6.10;3.03;;;;;;;18.65;55.20;101159.94;5061378;28;20630;-20
2022/06/13 10:16:02;;;;;;;3.80;2.70;;;;;;;18.60;55.30;101148.53;5066322;28;20056;-20
2022/06/13 10:18:34;;;;;;;6.05;3.75;;;;;;;18.56;55.81;101133.53;5048781;28;20027;-20
2022/06/13 10:21:02;;;;;;;4.40;2.80;;;;;;;18.52;55.95;101132.78;5050199;28;20043;-21
2022/06/13 10:23:39;;;;;;;3.38;2.65;;;;;;;18.50;56.14;101134.63;5068000;28;20032;-20
2022/06/13 10:26:07;;;;;;;3.75;3.38;;;;;;;18.49;56.39;101148.91;5048784;28;20044;-20
2022/06/13 10:28:33;;;;;;;3.97;3.00;;;;;;;18.48;56.07;101152.53;5066375;28;20029;-20
2022/06/13 10:31:22;;;;;;;3.22;2.65;;;;;;;18.49;55.93;101146.25;5067955;28;20025;-20
2022/06/13 10:34:12;;;;;;;3.38;2.53;;;;;;;18.49;56.09;101156.94;5059694;28;20025;-20
2022/06/13 10:37:16;;;;;;;4.28;2.85;;;;;;;18.55;55.70;101153.16;5064323;28;20029;-20
2022/06/13 10:39:42;;;;;;;4.10;2.67;;;;;;;18.56;55.56;101147.78;5067762;28;20025;-20
2022/06/13 10:42:12;;;;;;;4.32;2.60;;;;;;;18.58;56.10;101159.25;5066261;28;20699;-20
2022/06/13 10:44:38;;;;;;;3.13;2.88;;;;;;;18.65;56.25;101148.38;5065951;28;20411;-21
2022/06/13 10:47:10;;;;;;;2.65;2.42;;;;;;;18.70;56.24;101147.28;5049296;28;20052;-21
2022/06/13 10:49:58;;;;;;;4.78;2.70;;;;;;;18.77;57.26;101153.28;5068487;28;20025;-21
2022/06/13 10:52:27;;;;;;;4.30;3.33;;;;;;;18.85;57.11;101140.50;5065491;28;20093;-21
2022/06/13 10:55:09;;;;;;;7.95;3.03;;;;;;;18.93;56.14;101144.69;5068188;28;20035;-21
2022/06/13 10:57:41;;;;;;;3.38;2.95;;;;;;;19.02;56.17;101147.03;5045779;28;20124;-21
2022/06/13 11:00:13;;;;;;;3.30;3.00;;;;;;;19.10;56.22;101141.41;5066125;28;20035;-21
2022/06/13 11:02:38;;;;;;;4.18;2.80;;;;;;;19.16;57.18;101125.16;5063135;28;20039;-21
2022/06/13 11:05:09;;;;;;;3.70;3.03;;;;;;;19.27;57.09;101132.75;5062461;28;20028;-21
2022/06/13 11:08:00;;;;;;;5.22;2.85;;;;;;;19.33;56.93;101126.31;5065502;28;20020;-21
2022/06/13 11:10:33;;;;;;;3.80;3.22;;;;;;;19.42;56.64;101119.72;5056329;28;20092;-21
2022/06/13 11:12:59;;;;;;;5.68;3.38;;;;;;;19.54;56.16;101111.22;5063937;28;20062;-21
2022/06/13 11:24:12;;;;;;;7.85;2.72;;;;;;;19.94;55.31;101123.91;5059622;28;20038;-21
2022/06/13 11:29:23;;;;;;;3.00;2.45;;;;;;;20.07;55.12;101119.81;5066598;28;20036;-21
2022/06/13 11:31:51;;;;;;;5.10;2.63;;;;;;;20.21;54.31;101116.53;5049745;28;20032;-21
2022/06/13 11:34:38;;;;;;;3.60;2.72;;;;;;;20.36;54.07;101122.19;5065989;28;20024;-21
2022/06/13 11:37:13;;;;;;;4.22;2.40;;;;;;;20.41;53.96;101120.19;5065700;28;20078;-21
2022/06/13 11:39:44;;;;;;;2.83;2.38;;;;;;;20.50;53.76;101116.22;5066633;28;20122;-21
2022/06/13 11:42:19;;;;;;;3.25;2.15;;;;;;;20.63;53.00;101113.88;5068036;28;20028;-21
2022/06/13 11:44:52;;;;;;;2.55;2.30;;;;;;;20.70;52.81;101114.44;5065639;28;20387;-21
2022/06/13 11:47:18;;;;;;;3.85;2.33;;;;;;;20.75;52.25;101115.13;5045382;28;20051;-21
2022/06/13 11:49:46;;;;;;;4.35;2.65;;;;;;;20.81;52.05;101108.63;5063796;28;20056;-21
2022/06/13 11:52:11;;;;;;;3.95;2.17;;;;;;;20.88;51.31;101110.09;5063573;28;20380;-21
2022/06/13 11:54:40;;;;;;;5.33;2.40;;;;;;;20.99;50.81;101106.94;5048378;28;20487;-21
2022/06/13 11:57:14;;;;;;;3.85;2.67;;;;;;;21.12;51.22;101108.13;5064898;28;20024;-21
2022/06/13 11:59:54;;;;;;;2.47;2.25;;;;;;;21.28;51.56;101107.41;5066153;28;20064;-21
2022/06/13 12:02:23;;;;;;;4.85;2.53;;;;;;;21.39;50.68;101110.44;5065082;28;20024;-21
2022/06/13 12:04:48;;;;;;;4.78;2.63;;;;;;;21.50;50.78;101117.97;5067223;28;20024;-21
2022/06/13 12:07:29;;;;;;;2.40;2.20;;;;;;;21.56;50.65;101094.44;5067150;28;20031;-21
2022/06/13 12:09:59;;;;;;;3.47;2.33;;;;;;;21.60;50.15;101107.66;5065244;28;20093;-21
2022/06/13 12:12:41;;;;;;;3.00;2.40;;;;;;;21.67;49.79;101103.72;5065421;28;20024;-21
2022/06/13 12:15:11;;;;;;;6.03;2.47;;;;;;;21.69;49.93;101105.44;5066182;28;20711;-21